Flight Track Log - Related Links

Times and Time Zones

All times are in EDT time to prevent confusion due to time zone crossing. See the AAY845 flight status page for this flight to view local times or setup timezone preferences in your user account.

Time Position Orientation Groundspeed Altitude Reporting Facility
EDT Latitude Longitude Course Direction KTS MPH feet Rate Location/Type
Mon 07:57:17 PM 41.5117 -74.0656 61° Northeast 174 200 2,100  Level Boston Center
Mon 07:58:18 PM 41.5406 -73.9956 61° Northeast 223 257 4,100 1,475 Climbing Boston Center
Mon 07:59:19 PM 41.5914 -74.0314 332° Northwest 251 289 5,100 492 Climbing Boston Center
Mon 08:00:20 PM 41.6192 -74.1258 292° West 256 295 5,100 1,230 Level Boston Center
Mon 08:01:21 PM 41.6494 -74.2103 296° West 256 295 7,600 2,557 Climbing Boston Center
Mon 08:02:22 PM 41.6808 -74.2989 295° West 264 304 10,300 2,066 Climbing Boston Center
Mon 08:03:23 PM 41.6808 -74.4058 270° West 316 364 11,800 1,707 Climbing Boston Center
Mon 08:04:25 PM 41.6539 -74.5419 255° West 354 407 13,800 2,146 Climbing Boston Center
Mon 08:05:26 PM 41.6281 -74.6797 256° West 378 435 16,200 2,182 Climbing Boston Center
Mon 08:06:15 PM 41.6075 -74.7911 256° West 389 448 17,800 2,018 Climbing New York Center
Mon 08:07:16 PM 41.5797 -74.9336 255° West 394 453 19,900 1,966 Climbing New York Center
Mon 08:08:14 PM 41.5517 -75.0786 256° West 405 466 21,700 1,966 Climbing New York Center
Mon 08:09:15 PM 41.5253 -75.2294 257° West 412 474 23,800 1,850 Climbing New York Center
Mon 08:10:14 PM 41.4967 -75.3769 256° West 412 474 25,400 1,780 Climbing New York Center
Mon 08:11:13 PM 41.4886 -75.5261 266° West 417 480 27,300 1,950 Climbing New York Center
Mon 08:12:14 PM 41.5308 -75.6703 291° West 403 464 29,300 1,587 Climbing New York Center
Mon 08:13:14 PM 41.5653 -75.7919 291° West 398 458 30,500 1,140 Climbing New York Center
Mon 08:14:15 PM 41.6053 -75.9283 291° West 398 458 31,600 756 Climbing New York Center
Mon 08:15:13 PM 41.6450 -76.0672 291° West 398 458 32,000 203 Climbing New York Center
Mon 08:16:13 PM 41.6719 -76.2083 284° West 398 458 32,000  Level New York Center
Mon 08:17:14 PM 41.6342 -76.3494 250° West 382 440 32,000  Level New York Center
Mon 08:18:16 PM 41.5797 -76.4836 242° Southwest 389 448 32,000  Level New York Center
Mon 08:19:14 PM 41.5214 -76.6144 239° Southwest 408 470 32,000  Level New York Center
Mon 08:20:15 PM 41.4669 -76.7428 241° Southwest 413 475 32,000  Level New York Center
Mon 08:21:14 PM 41.4083 -76.8731 239° Southwest 413 475 32,000  Level New York Center
Mon 08:22:15 PM 41.3536 -77.0036 241° Southwest 408 470 32,000  Level New York Center
Mon 08:23:13 PM 41.2969 -77.1308 239° Southwest 402 463 32,000  Level New York Center
Mon 08:24:13 PM 41.2419 -77.2581 240° Southwest 402 463 32,000 432 Level New York Center
Mon 08:25:32 PM 41.1614 -77.4419 240° Southwest 403 464 33,000 851 Climbing Cleveland Center
Mon 08:26:34 PM 41.1058 -77.5656 239° Southwest 395 455 34,000 484 Climbing Cleveland Center
Mon 08:27:36 PM 41.0508 -77.6914 240° Southwest 394 453 34,000  Level Cleveland Center
Mon 08:28:38 PM 40.9956 -77.8147 239° Southwest 394 453 34,000  Level Cleveland Center
Mon 08:29:40 PM 40.9394 -77.9392 239° Southwest 394 453 34,000  Level Cleveland Center
Mon 08:30:42 PM 40.8750 -78.0592 235° Southwest 398 458 34,000  Level Cleveland Center
Mon 08:31:44 PM 40.8017 -78.1717 229° Southwest 402 463 34,000  Level Cleveland Center
Mon 08:32:46 PM 40.7169 -78.3053 230° Southwest 397 457 34,000  Level Cleveland Center
Mon 08:33:48 PM 40.6442 -78.4156 229° Southwest 397 457 34,000  Level Cleveland Center
Mon 08:34:50 PM 40.5728 -78.5275 230° Southwest 398 458 34,000  Level Cleveland Center
Mon 08:35:51 PM 40.5008 -78.6378 229° Southwest 398 458 34,000  Level Cleveland Center
Mon 08:36:53 PM 40.4297 -78.7472 230° Southwest 398 458 34,000  Level Cleveland Center
Mon 08:37:55 PM 40.3575 -78.8556 229° Southwest 397 457 34,000  Level Cleveland Center
Mon 08:38:57 PM 40.2697 -78.9894 229° Southwest 402 463 34,000  Level Cleveland Center
Mon 08:39:59 PM 40.1958 -79.1003 229° Southwest 403 464 34,000  Level Cleveland Center
Mon 08:41:01 PM 40.1233 -79.2103 229° Southwest 403 464 34,000  Level Cleveland Center
Mon 08:42:03 PM 40.0456 -79.3261 229° Southwest 405 466 34,000  Level Cleveland Center
Mon 08:43:05 PM 39.9725 -79.4358 229° Southwest 404 465 34,000  Level Cleveland Center
Mon 08:44:07 PM 39.8994 -79.5450 229° Southwest 402 463 34,000  Level Cleveland Center
Mon 08:45:09 PM 39.8250 -79.6544 228° Southwest 402 463 34,000  Level Cleveland Center
Mon 08:47:38 PM 39.6328 -79.9378 229° Southwest 403 464 34,000  Level Indianapolis Center
Mon 08:48:39 PM 39.5606 -80.0467 229° Southwest 402 463 34,000  Level Indianapolis Center
Mon 08:49:41 PM 39.4858 -80.1536 228° Southwest 401 461 34,000  Level Indianapolis Center
Mon 08:50:42 PM 39.4100 -80.2594 227° Southwest 401 461 34,000  Level Indianapolis Center
Mon 08:51:44 PM 39.3339 -80.3661 227° Southwest 402 463 34,000  Level Indianapolis Center
Mon 08:52:45 PM 39.2589 -80.4728 228° Southwest 402 463 34,000  Level Indianapolis Center
Mon 08:53:47 PM 39.1825 -80.5778 227° Southwest 401 461 34,000  Level Indianapolis Center
Mon 08:54:48 PM 39.0583 -80.6411 202° Southwest 404 465 34,000  Level Indianapolis Center
Mon 08:55:50 PM 38.9478 -80.6769 194° South 405 466 34,000  Level Indianapolis Center
Mon 08:56:51 PM 38.8381 -80.7142 195° South 405 466 34,000  Level Indianapolis Center
Mon 08:57:53 PM 38.7272 -80.7508 194° South 405 466 34,000  Level Indianapolis Center
Mon 08:58:54 PM 38.6167 -80.7881 195° South 405 466 34,000  Level Indianapolis Center
Mon 08:59:56 PM 38.5067 -80.8250 195° South 406 467 34,000  Level Indianapolis Center
Mon 09:00:57 PM 38.3961 -80.8606 194° South 406 467 34,000  Level Indianapolis Center
Mon 09:01:59 PM 38.2858 -80.8978 195° South 406 467 34,000  Level Indianapolis Center
Mon 09:03:00 PM 38.1739 -80.9344 194° South 406 467 34,000  Level Indianapolis Center
Mon 09:04:01 PM 38.0631 -80.9708 194° South 408 470 34,000  Level Indianapolis Center
Mon 09:05:03 PM 37.9519 -81.0075 195° South 409 471 34,000  Level Indianapolis Center
Mon 09:06:04 PM 37.8192 -81.0503 194° South 409 471 34,000  Level Indianapolis Center
Mon 09:07:06 PM 37.7114 -81.0864 195° South 409 471 34,000  Level Indianapolis Center
Mon 09:08:07 PM 37.6044 -81.1214 195° South 409 471 34,000  Level Indianapolis Center
Mon 09:09:09 PM 37.4992 -81.1544 194° South 408 470 34,000  Level Indianapolis Center
Mon 09:10:10 PM 37.3742 -81.1958 195° South 402 463 34,000  Level Indianapolis Center
Mon 09:11:12 PM 37.2608 -81.2319 194° South 402 463 34,000  Level Indianapolis Center
Mon 09:12:13 PM 37.1508 -81.2669 194° South 402 463 34,000  Level Indianapolis Center
Mon 09:13:05 PM 37.0536 -81.3003 195° South 407 468 34,000  Level Atlanta Center
Mon 09:14:05 PM 36.9419 -81.3353 194° South 415 478 34,000  Level Atlanta Center
Mon 09:15:05 PM 36.8322 -81.3700 194° South 410 472 34,000  Level Atlanta Center
Mon 09:16:05 PM 36.7286 -81.4022 194° South 410 472 34,000  Level Atlanta Center
Mon 09:17:05 PM 36.6189 -81.4367 194° South 405 466 34,000  Level Atlanta Center
Mon 09:18:05 PM 36.5089 -81.4714 194° South 410 472 34,000  Level Atlanta Center
Mon 09:19:05 PM 36.4014 -81.5058 194° South 410 472 34,000  Level Atlanta Center
Mon 09:20:05 PM 36.2914 -81.5400 194° South 410 472 34,000  Level Atlanta Center
Mon 09:21:05 PM 36.1794 -81.5769 195° South 410 472 34,000  Level Atlanta Center
Mon 09:22:05 PM 36.0739 -81.6058 192° South 410 472 34,000  Level Atlanta Center
Mon 09:23:05 PM 35.9619 -81.6453 196° South 410 472 34,000  Level Atlanta Center
Mon 09:24:05 PM 35.8500 -81.6817 195° South 415 478 34,000  Level Atlanta Center
Mon 09:25:05 PM 35.7422 -81.7156 194° South 410 472 34,000  Level Atlanta Center
Mon 09:26:05 PM 35.6322 -81.7494 194° South 410 472 34,000  Level Atlanta Center
Mon 09:27:05 PM 35.5203 -81.7831 194° South 410 472 34,000  Level Atlanta Center
Mon 09:28:05 PM 35.4103 -81.8167 194° South 410 472 34,000  Level Atlanta Center
Mon 09:29:05 PM 35.3044 -81.8500 194° South 410 472 34,000  Level Atlanta Center
Mon 09:30:05 PM 35.1944 -81.8808 193° South 410 472 34,000  Level Atlanta Center
Mon 09:31:05 PM 35.0822 -81.9169 195° South 410 472 34,000  Level Atlanta Center
Mon 09:32:05 PM 34.9722 -81.9450 192° South 410 472 34,000  Level Atlanta Center
Mon 09:33:05 PM 34.8597 -81.9581 185° South 410 472 34,000  Level Atlanta Center
Mon 09:34:05 PM 34.7475 -81.9811 190° South 410 472 34,000  Level Atlanta Center
Mon 09:35:05 PM 34.6581 -81.9958 188° South 410 472 34,000  Level Atlanta Center
Mon 09:36:05 PM 34.5206 -82.0194 188° South 410 472 34,000  Level Atlanta Center
Mon 09:37:05 PM 34.4103 -82.0372 188° South 410 472 34,000  Level Atlanta Center
Mon 09:38:05 PM 34.2939 -82.0600 189° South 410 472 34,000  Level Atlanta Center
Mon 09:39:05 PM 34.1814 -82.0778 187° South 410 472 34,000  Level Atlanta Center
Mon 09:40:05 PM 34.0669 -82.1003 189° South 410 472 34,000  Level Atlanta Center
Mon 09:41:05 PM 33.9525 -82.1181 187° South 415 478 34,000  Level Atlanta Center
Mon 09:42:05 PM 33.8358 -82.1381 188° South 420 483 34,000  Level Atlanta Center
Mon 09:43:05 PM 33.7194 -82.1583 188° South 425 489 34,000  Level Atlanta Center
Mon 09:44:05 PM 33.6047 -82.1781 188° South 425 489 34,000  Level Atlanta Center
Mon 09:45:05 PM 33.4883 -82.1981 188° South 425 489 34,000  Level Atlanta Center
Mon 09:46:05 PM 33.3736 -82.2156 187° South 425 489 34,000  Level Atlanta Center
Mon 09:47:05 PM 33.2572 -82.2353 188° South 425 489 34,000  Level Atlanta Center
Mon 09:48:05 PM 33.1425 -82.2550 188° South 425 489 34,000  Level Atlanta Center
Mon 09:49:05 PM 33.0258 -82.2722 187° South 425 489 34,000  Level Atlanta Center
Mon 09:50:57 PM 32.8250 -82.3067 188° South 407 468 34,000  Level Jacksonville Center
Mon 09:51:57 PM 32.7081 -82.3247 187° South 412 474 34,000  Level Jacksonville Center
Mon 09:52:57 PM 32.5953 -82.3428 188° South 412 474 34,000  Level Jacksonville Center
Mon 09:53:57 PM 32.4806 -82.3581 186° South 412 474 34,000  Level Jacksonville Center
Mon 09:54:57 PM 32.3575 -82.3811 189° South 412 474 34,000  Level Jacksonville Center
Mon 09:55:57 PM 32.2408 -82.3989 187° South 412 474 34,000  Level Jacksonville Center
Mon 09:56:57 PM 32.1217 -82.4167 187° South 422 486 34,000  Level Jacksonville Center
Mon 09:57:57 PM 32.0092 -82.4344 188° South 422 486 34,000  Level Jacksonville Center
Mon 09:58:57 PM 31.8922 -82.4472 185° South 422 486 34,000  Level Jacksonville Center
Mon 09:59:57 PM 31.7711 -82.4428 178° South 427 491 34,000  Level Jacksonville Center
Mon 10:00:57 PM 31.6647 -82.4411 179° South 427 491 34,000  Level Jacksonville Center
Mon 10:01:57 PM 31.5456 -82.4319 176° South 427 491 34,000  Level Jacksonville Center
Mon 10:02:57 PM 31.4267 -82.4300 179° South 427 491 34,000  Level Jacksonville Center
Mon 10:03:57 PM 31.2931 -82.4258 178° South 432 497 34,000  Level Jacksonville Center
Mon 10:04:57 PM 31.1719 -82.4217 178° South 437 503 34,000  Level Jacksonville Center
Mon 10:05:57 PM 31.0528 -82.4197 179° South 437 503 34,000 -50 Level Jacksonville Center
Mon 10:06:57 PM 30.9317 -82.4131 177° South 437 503 33,900  Descending Jacksonville Center
Mon 10:07:57 PM 30.8125 -82.4089 178° South 437 503 34,000 50 Climbing Jacksonville Center
Mon 10:08:57 PM 30.6936 -82.4047 178° South 437 503 34,000 -50 Level Jacksonville Center
Mon 10:09:57 PM 30.5744 -82.3981 177° South 437 503 33,900  Descending Jacksonville Center
Mon 10:10:57 PM 30.4661 -82.3961 179° South 437 503 34,000 50 Climbing Jacksonville Center
Mon 10:11:57 PM 30.3469 -82.3894 177° South 437 503 34,000 -50 Level Jacksonville Center
Mon 10:12:57 PM 30.2258 -82.3853 178° South 437 503 33,900 -500 Descending Jacksonville Center
Mon 10:13:57 PM 30.1069 -82.3811 178° South 437 503 33,000 -950 Descending Jacksonville Center
Mon 10:14:57 PM 29.9878 -82.3722 176° South 437 503 32,000 -1,000 Descending Jacksonville Center
Mon 10:15:57 PM 29.8644 -82.3681 178° South 442 509 31,000 -1,150 Descending Jacksonville Center
Mon 10:16:57 PM 29.7433 -82.3639 178° South 442 509 29,700 -1,650 Descending Jacksonville Center
Mon 10:17:57 PM 29.6244 -82.3597 178° South 442 509 27,700 -1,950 Descending Jacksonville Center
Mon 10:18:57 PM 29.5075 -82.3508 176° South 436 502 25,800 -1,600 Descending Jacksonville Center
Mon 10:19:57 PM 29.3883 -82.3372 174° South 418 481 24,500 -1,650 Descending Jacksonville Center
Mon 10:20:57 PM 29.2819 -82.3236 174° South 399 459 22,500 -2,200 Descending Jacksonville Center
Mon 10:21:57 PM 29.1714 -82.3100 174° South 394 453 20,100 -2,350 Descending Jacksonville Center
Mon 10:22:57 PM 29.0647 -82.2986 175° South 394 453 17,800 -2,350 Descending Jacksonville Center
Mon 10:23:57 PM 28.9583 -82.2850 174° South 389 448 15,400 -1,789 Descending Jacksonville Center
Mon 10:25:38 PM 28.7833 -82.2667 175° South 349 402 13,000 -894 Descending Tampa TRACON
Mon 10:26:38 PM 28.7000 -82.2500 170° South 312 359 13,000 -400 Level Tampa TRACON
Mon 10:27:38 PM 28.6000 -82.2500 180° South 328 377 12,200 -950 Descending Tampa TRACON
Mon 10:28:38 PM 28.5167 -82.2500 180° South 338 389 11,100 -600 Descending Tampa TRACON
Mon 10:29:38 PM 28.4333 -82.2833 199° South 305 351 11,000 -227 Descending Tampa TRACON
Mon 10:30:50 PM 28.3333 -82.3167 196° South 303 349 10,600 -667 Descending Tampa TRACON
Mon 10:31:44 PM 28.2667 -82.3333 192° South 291 335 9,600 -1,421 Descending Tampa TRACON
Mon 10:32:44 PM 28.1833 -82.3667 199° South 281 323 7,900 -1,550 Descending Tampa TRACON
Mon 10:33:44 PM 28.1167 -82.3833 192° South 281 323 6,500 -1,368 Descending Tampa TRACON
Mon 10:34:38 PM 28.0500 -82.4167 204° Southwest 268 308 5,300 -1,333 Descending Tampa TRACON
Mon 10:35:32 PM 28.0000 -82.4667 221° Southwest 253 291 4,100 -1,263 Descending Tampa TRACON
Mon 10:36:32 PM 27.9500 -82.5000 210° Southwest 234 269 2,900 -1,100 Descending Tampa TRACON
Mon 10:37:32 PM 27.9000 -82.5333 211° Southwest 205 236 1,900 -595 Descending Tampa TRACON
Mon 10:38:33 PM 27.8500 -82.5667 211° Southwest 185 213 1,700 -149 Descending Tampa TRACON
Mon 10:39:33 PM 27.8333 -82.6167 249° West 164 189 1,600 -150 Descending Tampa TRACON
Mon 10:40:33 PM 27.8333 -82.6667 270° West 154 177 1,400 -476 Descending Tampa TRACON
Mon 10:41:39 PM 27.8667 -82.6833 336° Northwest 131 151 600 -727 Descending Tampa TRACON
Mon 10:43:00 PM 27.9000 -82.6833 310° West  Level FlightAware Approximate

Login

Don't have an account? Register now (free) for customized features, flight alerts, and more!